Time;durP1;ratioP1;P1;durP2;ratioP2;P2;SDS_P1;SDS_P2;PMS_P1;PMS_P2;Temp;Humidity;BMP_temperature;BMP_pressure;BME280_temperature;BME280_humidity;BME280_pressure;Samples;Min_cycle;Max_cycle;Signal;HPM_P1;HPM_P2
2023/03/05 00:00:29;;;;;;;;;;;;;;;4.19;65.32;101026.97;4122189;28;20440;-65
2023/03/05 00:02:33;;;;;;;;;;;;;;;4.19;65.24;101012.75;4121241;28;20028;-65
2023/03/05 00:04:35;;;;;;;;;;;;;;;4.21;65.58;101016.16;4117096;28;20072;-65
2023/03/05 00:06:37;;;;;;;;;;;;;;;4.23;65.39;101015.06;4122492;28;20008;-65
2023/03/05 00:08:39;;;;;;;;;;;;;;;4.27;65.35;101015.63;4122431;28;20113;-65
2023/03/05 00:10:40;;;;;;;;;;;;;;;4.28;65.55;101010.16;4121800;28;20029;-65
2023/03/05 00:12:42;;;;;;;;;;;;;;;4.26;65.50;101009.44;4121160;28;20029;-65
2023/03/05 00:14:45;;;;;;;;;;;;;;;4.27;65.73;101003.09;4120869;28;20033;-65
2023/03/05 00:16:47;;;;;;;;;;;;;;;4.28;66.11;101012.00;4122294;28;20104;-65
2023/03/05 00:18:50;;;;;;;;;;;;;;;4.27;66.27;101010.28;4121695;28;20012;-65
2023/03/05 00:20:52;;;;;;;;;;;;;;;4.24;66.45;101000.69;4117376;28;20041;-64
2023/03/05 00:22:54;;;;;;;;;;;;;;;4.22;66.73;101002.66;4122587;28;20042;-65
2023/03/05 00:24:56;;;;;;;;;;;;;;;4.23;66.94;101003.50;4121017;28;20021;-65
2023/03/05 00:27:00;;;;;;;;;;;;;;;4.22;67.50;101004.50;4119721;28;20569;-66
2023/03/05 00:29:02;;;;;;;;;;;;;;;4.22;67.72;100996.47;4121637;28;20028;-66
2023/03/05 00:31:04;;;;;;;;;;;;;;;4.22;67.88;101001.81;4121150;28;20028;-65
2023/03/05 00:33:06;;;;;;;;;;;;;;;4.20;68.20;100993.91;4120021;28;20025;-65
2023/03/05 00:35:10;;;;;;;;;;;;;;;4.19;68.49;100994.06;4120035;28;20053;-66
2023/03/05 00:37:12;;;;;;;;;;;;;;;4.17;68.81;100979.94;4120002;28;20028;-66
2023/03/05 00:39:14;;;;;;;;;;;;;;;4.16;69.06;100987.13;4121913;28;20386;-66
2023/03/05 00:41:17;;;;;;;;;;;;;;;4.11;69.71;100978.66;4120436;28;20029;-65
2023/03/05 00:43:19;;;;;;;;;;;;;;;4.09;69.66;100980.59;4110880;28;20037;-65
2023/03/05 00:45:21;;;;;;;;;;;;;;;4.08;69.87;100973.56;4119200;28;20439;-65
2023/03/05 00:47:24;;;;;;;;;;;;;;;4.02;70.12;100964.22;4121315;28;20028;-66
2023/03/05 00:49:26;;;;;;;;;;;;;;;3.99;70.72;100972.50;4121561;28;19997;-66
2023/03/05 00:51:29;;;;;;;;;;;;;;;3.93;71.06;100957.84;4118434;28;20017;-66
2023/03/05 00:53:31;;;;;;;;;;;;;;;3.91;71.38;100959.78;4119381;28;20020;-66
2023/03/05 00:55:34;;;;;;;;;;;;;;;3.87;71.70;100954.81;4120887;28;20025;-66
2023/03/05 00:57:36;;;;;;;;;;;;;;;3.87;71.81;100954.81;4104738;28;20455;-66
2023/03/05 00:59:38;;;;;;;;;;;;;;;3.86;72.38;100947.78;4119734;28;20024;-66
2023/03/05 01:01:40;;;;;;;;;;;;;;;3.84;72.63;100950.59;4119862;28;20033;-66
2023/03/05 01:03:42;;;;;;;;;;;;;;;3.82;72.88;100949.84;4121455;28;20013;-66
2023/03/05 01:05:44;;;;;;;;;;;;;;;3.82;72.97;100943.66;4121068;28;20032;-67
2023/03/05 01:07:48;;;;;;;;;;;;;;;3.79;72.83;100944.75;4116524;28;20384;-66
2023/03/05 01:09:50;;;;;;;;;;;;;;;3.78;72.75;100940.41;4119035;28;20012;-67
2023/03/05 01:11:53;;;;;;;;;;;;;;;3.70;72.79;100922.34;4117234;28;20018;-64
2023/03/05 01:13:55;;;;;;;;;;;;;;;3.77;72.55;100936.03;4119761;28;20693;-67
2023/03/05 01:15:57;;;;;;;;;;;;;;;3.74;72.03;100931.78;4121736;28;20037;-66
2023/03/05 01:17:59;;;;;;;;;;;;;;;3.73;72.04;100930.13;4122559;28;20025;-67
2023/03/05 01:20:02;;;;;;;;;;;;;;;3.71;71.86;100926.69;4121453;28;20014;-66
2023/03/05 01:22:04;;;;;;;;;;;;;;;3.70;71.73;100919.69;4121051;28;20372;-65
2023/03/05 01:24:08;;;;;;;;;;;;;;;3.68;71.06;100916.28;4120980;28;20030;-64
2023/03/05 01:26:09;;;;;;;;;;;;;;;3.69;70.67;100922.47;4121442;28;20416;-65
2023/03/05 01:28:11;;;;;;;;;;;;;;;3.68;70.38;100924.28;4122518;28;20024;-65
2023/03/05 01:30:14;;;;;;;;;;;;;;;3.65;70.23;100919.19;4119509;28;20671;-65
2023/03/05 01:32:16;;;;;;;;;;;;;;;3.65;69.71;100918.34;4123178;28;20035;-65
2023/03/05 01:34:20;;;;;;;;;;;;;;;3.65;69.44;100916.53;4125113;28;20367;-65
2023/03/05 01:36:23;;;;;;;;;;;;;;;3.66;69.03;100914.72;4125002;28;20356;-65
2023/03/05 01:38:26;;;;;;;;;;;;;;;3.67;68.54;100916.41;4125074;28;20418;-65
2023/03/05 01:40:30;;;;;;;;;;;;;;;3.67;68.25;100908.38;4123692;28;20025;-65
2023/03/05 01:42:32;;;;;;;;;;;;;;;3.65;67.27;100902.34;4120269;28;20044;-65
2023/03/05 01:44:34;;;;;;;;;;;;;;;3.67;67.15;100903.03;4124632;28;20370;-65
2023/03/05 01:46:36;;;;;;;;;;;;;;;3.67;66.48;100905.72;4124683;28;20021;-65
2023/03/05 01:48:38;;;;;;;;;;;;;;;3.65;65.49;100905.84;4119739;28;20016;-65
2023/03/05 01:50:40;;;;;;;;;;;;;;;3.65;65.75;100897.81;4124508;28;20012;-65
2023/03/05 01:52:43;;;;;;;;;;;;;;;3.67;65.26;100898.56;4124584;28;20331;-65
2023/03/05 01:54:45;;;;;;;;;;;;;;;3.65;65.01;100891.66;4124290;28;20432;-66
2023/03/05 01:56:47;;;;;;;;;;;;;;;3.65;64.97;100895.16;4124625;28;20349;-66
2023/03/05 01:58:50;;;;;;;;;;;;;;;3.64;64.41;100887.28;4121983;28;20499;-65
2023/03/05 02:00:52;;;;;;;;;;;;;;;3.65;64.45;100895.16;4123881;28;20053;-66
2023/03/05 02:02:54;;;;;;;;;;;;;;;3.64;63.88;100888.13;4124476;28;20029;-65
2023/03/05 02:04:57;;;;;;;;;;;;;;;3.63;63.60;100890.94;4123113;28;20004;-65
2023/03/05 02:07:00;;;;;;;;;;;;;;;3.61;63.28;100893.75;4123534;28;20459;-65
2023/03/05 02:09:02;;;;;;;;;;;;;;;3.57;62.79;100881.59;4122903;28;20017;-65
2023/03/05 02:11:04;;;;;;;;;;;;;;;3.54;62.41;100885.41;4123748;28;20012;-65
2023/03/05 02:13:08;;;;;;;;;;;;;;;3.52;62.38;100883.81;4122729;28;20029;-65
2023/03/05 02:15:11;;;;;;;;;;;;;;;3.51;62.07;100882.97;4122987;28;20022;-65
2023/03/05 02:17:13;;;;;;;;;;;;;;;3.50;61.75;100883.09;4124016;28;20020;-66
2023/03/05 02:19:15;;;;;;;;;;;;;;;3.49;61.42;100886.75;4123686;28;20032;-66
2023/03/05 02:21:26;;;;;;;;;;;;;;;3.47;61.26;100876.19;4124242;28;20380;-66
2023/03/05 02:23:29;;;;;;;;;;;;;;;3.46;60.73;100887.00;4121817;28;20032;-66
2023/03/05 02:25:31;;;;;;;;;;;;;;;3.45;60.65;100887.97;4123163;28;20013;-66
2023/03/05 02:27:34;;;;;;;;;;;;;;;3.46;60.59;100881.66;4123862;28;20024;-66
2023/03/05 02:29:36;;;;;;;;;;;;;;;3.45;59.99;100871.94;4121205;28;20456;-66
2023/03/05 02:31:38;;;;;;;;;;;;;;;3.42;59.86;100873.06;4123776;28;20024;-65
2023/03/05 02:33:40;;;;;;;;;;;;;;;3.41;59.49;100874.03;4106367;28;20029;-66
2023/03/05 02:35:43;;;;;;;;;;;;;;;3.40;59.34;100873.19;4122118;28;20340;-66
2023/03/05 02:37:46;;;;;;;;;;;;;;;3.37;59.06;100868.09;4104738;28;20041;-66
2023/03/05 02:39:48;;;;;;;;;;;;;;;3.36;58.89;100878.91;4104012;28;20017;-66
2023/03/05 02:41:51;;;;;;;;;;;;;;;3.34;58.92;100864.81;4122102;28;20443;-66
2023/03/05 02:43:53;;;;;;;;;;;;;;;3.34;58.87;100859.47;4122560;28;20029;-65
2023/03/05 02:45:55;;;;;;;;;;;;;;;3.34;58.77;100859.47;4123625;28;20034;-65
2023/03/05 02:47:57;;;;;;;;;;;;;;;3.31;58.55;100863.28;4124167;28;20450;-65
2023/03/05 02:50:00;;;;;;;;;;;;;;;3.32;58.56;100861.44;4123527;28;20018;-65
2023/03/05 02:52:02;;;;;;;;;;;;;;;3.30;58.27;100863.41;4120974;28;20017;-65
2023/03/05 02:54:05;;;;;;;;;;;;;;;3.29;58.32;100854.53;4121880;28;20016;-64
2023/03/05 02:56:07;;;;;;;;;;;;;;;3.31;58.33;100859.72;4123992;28;20021;-64
2023/03/05 02:58:10;;;;;;;;;;;;;;;3.27;58.23;100853.81;4123169;28;20012;-65
2023/03/05 03:00:13;;;;;;;;;;;;;;;3.27;58.14;100847.63;4122387;28;20032;-65
2023/03/05 03:02:15;;;;;;;;;;;;;;;3.27;58.36;100847.63;4121817;28;20020;-65
2023/03/05 03:04:17;;;;;;;;;;;;;;;3.24;58.04;100849.59;4121238;28;20025;-65
2023/03/05 03:06:19;;;;;;;;;;;;;;;3.24;58.21;100856.72;4121786;28;20407;-65
2023/03/05 03:08:21;;;;;;;;;;;;;;;3.22;58.11;100842.66;4123052;28;20020;-65
2023/03/05 03:10:25;;;;;;;;;;;;;;;3.20;58.22;100845.47;4123374;28;20016;-65
2023/03/05 03:12:27;;;;;;;;;;;;;;;3.21;58.44;100828.50;4116226;28;20056;-66
2023/03/05 03:14:30;;;;;;;;;;;;;;;3.18;58.31;100830.53;4122451;28;20024;-65
2023/03/05 03:16:33;;;;;;;;;;;;;;;3.15;58.45;100831.66;4123048;28;20452;-66
2023/03/05 03:18:35;;;;;;;;;;;;;;;3.12;58.44;100834.59;4123316;28;20025;-65
2023/03/05 03:20:37;;;;;;;;;;;;;;;3.13;58.58;100833.59;4122650;28;20025;-65
2023/03/05 03:22:39;;;;;;;;;;;;;;;3.12;58.61;100831.03;4122499;28;20026;-65
2023/03/05 03:24:42;;;;;;;;;;;;;;;3.12;58.50;100833.72;4123448;28;20315;-65
2023/03/05 03:26:45;;;;;;;;;;;;;;;3.10;58.80;100825.00;4123817;28;20053;-65
2023/03/05 03:28:47;;;;;;;;;;;;;;;3.09;58.74;100824.16;4123217;28;20494;-65
2023/03/05 03:30:49;;;;;;;;;;;;;;;3.08;58.57;100824.28;4123992;28;20025;-66
2023/03/05 03:32:52;;;;;;;;;;;;;;;3.09;58.99;100815.28;4121741;28;20016;-65
2023/03/05 03:34:54;;;;;;;;;;;;;;;3.11;59.12;100811.53;4122452;28;20017;-65
2023/03/05 03:36:55;;;;;;;;;;;;;;;3.12;58.78;100813.22;4123400;28;20017;-65
2023/03/05 03:38:57;;;;;;;;;;;;;;;3.12;58.60;100805.22;4123223;28;20008;-65
2023/03/05 03:40:59;;;;;;;;;;;;;;;3.12;58.74;100809.69;4121793;28;20486;-66
2023/03/05 03:43:03;;;;;;;;;;;;;;;3.11;58.74;100803.53;4121430;28;20432;-65
2023/03/05 03:45:05;;;;;;;;;;;;;;;3.09;58.95;100794.81;4120234;28;20013;-65
2023/03/05 03:47:07;;;;;;;;;;;;;;;3.08;59.14;100806.44;4122001;28;20427;-65
2023/03/05 03:49:12;;;;;;;;;;;;;;;3.05;59.13;100802.19;4120144;28;20017;-65
2023/03/05 03:51:14;;;;;;;;;;;;;;;3.08;59.27;100798.44;4117416;28;20351;-65
2023/03/05 03:53:16;;;;;;;;;;;;;;;3.09;59.08;100804.59;4121363;28;20052;-65
2023/03/05 03:55:18;;;;;;;;;;;;;;;3.04;59.33;100797.84;4121624;28;20029;-66
2023/03/05 03:57:20;;;;;;;;;;;;;;;3.03;59.41;100797.97;4122187;28;20018;-65
2023/03/05 03:59:23;;;;;;;;;;;;;;;3.01;59.34;100799.91;4121486;28;20056;-65
2023/03/05 04:01:26;;;;;;;;;;;;;;;3.01;59.45;100791.91;4118955;28;20344;-65
2023/03/05 04:03:28;;;;;;;;;;;;;;;3.00;59.68;100788.41;4121441;28;20033;-65
2023/03/05 04:05:29;;;;;;;;;;;;;;;2.96;59.77;100786.97;4121790;28;20052;-65
2023/03/05 04:07:32;;;;;;;;;;;;;;;2.97;60.00;100785.13;4122384;28;20017;-65
2023/03/05 04:09:34;;;;;;;;;;;;;;;2.97;60.12;100780.66;4117531;28;20041;-66
2023/03/05 04:11:36;;;;;;;;;;;;;;;2.98;60.27;100778.81;4121957;28;20370;-65
2023/03/05 04:13:38;;;;;;;;;;;;;;;3.00;60.47;100775.06;4121682;28;20032;-66
2023/03/05 04:15:41;;;;;;;;;;;;;;;3.00;60.39;100777.72;4120508;28;20413;-65
2023/03/05 04:17:43;;;;;;;;;;;;;;;2.98;60.64;100778.81;4122613;28;20121;-65
2023/03/05 04:19:45;;;;;;;;;;;;;;;2.94;60.78;100770.22;4118051;28;20029;-65
2023/03/05 04:21:47;;;;;;;;;;;;;;;2.91;60.97;100775.81;4122175;28;20021;-65
2023/03/05 04:23:49;;;;;;;;;;;;;;;2.89;60.97;100773.28;4122529;28;20022;-65
2023/03/05 04:25:51;;;;;;;;;;;;;;;2.86;61.09;100762.84;4121695;28;20061;-65
2023/03/05 04:27:53;;;;;;;;;;;;;;;2.86;61.53;100768.19;4122086;28;20022;-65
2023/03/05 04:29:55;;;;;;;;;;;;;;;2.81;61.68;100762.38;4119586;28;20028;-66
2023/03/05 04:31:58;;;;;;;;;;;;;;;2.81;61.65;100761.56;4121997;28;20016;-65
2023/03/05 04:34:00;;;;;;;;;;;;;;;2.79;61.93;100759.00;4117415;28;20029;-66
2023/03/05 04:36:02;;;;;;;;;;;;;;;2.79;61.96;100769.69;4122032;28;20024;-65
2023/03/05 04:38:04;;;;;;;;;;;;;;;2.78;62.38;100764.47;4120102;28;20451;-65
2023/03/05 04:40:07;;;;;;;;;;;;;;;2.77;62.35;100765.44;4122256;28;20024;-65
2023/03/05 04:42:09;;;;;;;;;;;;;;;2.75;62.51;100754.88;4121836;28;20372;-66
2023/03/05 04:44:11;;;;;;;;;;;;;;;2.76;62.60;100753.06;4121964;28;20617;-66
2023/03/05 04:46:13;;;;;;;;;;;;;;;2.75;62.77;100756.72;4119382;28;20013;-66
2023/03/05 04:48:17;;;;;;;;;;;;;;;2.78;62.87;100751.13;4122079;28;20009;-66
2023/03/05 04:50:19;;;;;;;;;;;;;;;2.77;63.03;100747.59;4121536;28;20852;-66
2023/03/05 04:52:21;;;;;;;;;;;;;;;2.80;63.15;100747.34;4121520;28;20021;-66
2023/03/05 04:54:23;;;;;;;;;;;;;;;2.80;63.15;100749.19;4121597;28;20017;-66
2023/03/05 04:56:25;;;;;;;;;;;;;;;2.77;63.09;100750.25;4122734;28;20036;-66
2023/03/05 04:58:27;;;;;;;;;;;;;;;2.75;63.36;100749.56;4117141;28;20013;-66
2023/03/05 05:00:30;;;;;;;;;;;;;;;2.73;63.53;100742.63;4121623;28;20016;-66
2023/03/05 05:02:31;;;;;;;;;;;;;;;2.70;63.53;100755.25;4120917;28;20566;-65
2023/03/05 05:04:35;;;;;;;;;;;;;;;2.70;64.04;100741.94;4121607;28;20009;-66
2023/03/05 05:06:37;;;;;;;;;;;;;;;2.72;64.04;100748.97;4119237;28;20009;-66
2023/03/05 05:08:39;;;;;;;;;;;;;;;2.70;63.87;100741.09;4125570;28;20021;-66
2023/03/05 05:10:41;;;;;;;;;;;;;;;2.72;64.23;100741.81;4125021;28;20017;-66
2023/03/05 05:12:43;;;;;;;;;;;;;;;2.71;64.24;100750.78;4118126;28;20016;-66
2023/03/05 05:14:45;;;;;;;;;;;;;;;2.68;64.53;100745.69;4124854;28;20020;-65
2023/03/05 05:16:47;;;;;;;;;;;;;;;2.65;64.50;100754.81;4124734;28;20490;-66
2023/03/05 05:18:49;;;;;;;;;;;;;;;2.61;64.64;100745.34;4125398;28;20439;-65
2023/03/05 05:20:52;;;;;;;;;;;;;;;2.61;64.95;100752.50;4125383;28;20005;-65
2023/03/05 05:22:54;;;;;;;;;;;;;;;2.61;64.97;100744.50;4125599;28;20013;-66
2023/03/05 05:24:56;;;;;;;;;;;;;;;2.61;65.25;100740.00;4125406;28;20028;-65
2023/03/05 05:26:58;;;;;;;;;;;;;;;2.60;65.10;100741.00;4124593;28;20029;-65
2023/03/05 05:29:00;;;;;;;;;;;;;;;2.59;65.18;100749.13;4124879;28;20435;-65
2023/03/05 05:31:06;;;;;;;;;;;;;;;2.56;65.30;100744.88;4123935;28;20036;-66
2023/03/05 05:33:08;;;;;;;;;;;;;;;2.56;65.45;100744.88;4123991;28;20052;-66
2023/03/05 05:35:10;;;;;;;;;;;;;;;2.56;65.32;100744.03;4124452;28;20398;-65
2023/03/05 05:37:14;;;;;;;;;;;;;;;2.54;65.66;100746.84;4125131;28;20479;-65
2023/03/05 05:39:15;;;;;;;;;;;;;;;2.54;65.35;100746.84;4125499;28;20038;-66
2023/03/05 05:41:18;;;;;;;;;;;;;;;2.51;65.69;100741.75;4124956;28;20036;-66
2023/03/05 05:43:20;;;;;;;;;;;;;;;2.49;65.77;100743.69;4123944;28;20016;-66
2023/03/05 05:45:22;;;;;;;;;;;;;;;2.48;66.08;100744.66;4124081;28;20008;-66
2023/03/05 05:47:24;;;;;;;;;;;;;;;2.47;66.06;100748.28;4107127;28;20374;-66
2023/03/05 05:49:26;;;;;;;;;;;;;;;2.48;66.16;100752.66;4121870;28;20017;-66
2023/03/05 05:51:28;;;;;;;;;;;;;;;2.49;66.09;100749.00;4124839;28;20444;-66
2023/03/05 05:53:31;;;;;;;;;;;;;;;2.49;66.14;100749.88;4123333;28;20032;-66
2023/03/05 05:55:33;;;;;;;;;;;;;;;2.48;66.08;100748.16;4121343;28;20025;-66
2023/03/05 05:57:35;;;;;;;;;;;;;;;2.49;66.24;100749.00;4124393;28;20013;-66
2023/03/05 05:59:37;;;;;;;;;;;;;;;2.48;66.47;100753.50;4124020;28;20026;-66
2023/03/05 06:01:39;;;;;;;;;;;;;;;2.50;66.39;100756.03;4123802;28;20017;-66
2023/03/05 06:03:41;;;;;;;;;;;;;;;2.51;66.50;100752.41;4123885;28;20029;-64
2023/03/05 06:05:43;;;;;;;;;;;;;;;2.53;66.34;100753.13;4124145;28;20014;-66
2023/03/05 06:07:45;;;;;;;;;;;;;;;2.53;66.58;100751.31;4124940;28;20017;-66
2023/03/05 06:09:49;;;;;;;;;;;;;;;2.47;66.64;100746.47;4124481;28;20048;-66
2023/03/05 06:11:51;;;;;;;;;;;;;;;2.55;66.58;100747.69;4123496;28;20490;-66
2023/03/05 06:13:53;;;;;;;;;;;;;;;2.55;66.54;100747.69;4123608;28;20459;-65
2023/03/05 06:15:56;;;;;;;;;;;;;;;2.53;66.35;100753.13;4123993;28;20009;-65
2023/03/05 06:17:58;;;;;;;;;;;;;;;2.49;66.76;100757.88;4123856;28;20025;-64
2023/03/05 06:20:00;;;;;;;;;;;;;;;2.48;66.62;100752.66;4124335;28;20041;-65
2023/03/05 06:22:02;;;;;;;;;;;;;;;2.51;66.72;100753.25;4121688;28;20084;-65
2023/03/05 06:24:05;;;;;;;;;;;;;;;2.53;66.85;100745.97;4124871;28;20029;-66
2023/03/05 06:26:08;;;;;;;;;;;;;;;2.52;66.75;100741.63;4123789;28;20025;-66
2023/03/05 06:28:10;;;;;;;;;;;;;;;2.53;66.89;100745.13;4123439;28;20017;-65
2023/03/05 06:30:13;;;;;;;;;;;;;;;2.55;66.74;100737.00;4122670;28;20028;-65
2023/03/05 06:32:15;;;;;;;;;;;;;;;2.58;66.75;100734.09;4121876;28;20016;-65
2023/03/05 06:34:17;;;;;;;;;;;;;;;2.59;66.69;100735.81;4122846;28;20013;-65
2023/03/05 06:36:19;;;;;;;;;;;;;;;2.55;66.71;100729.84;4123626;28;20017;-65
2023/03/05 06:38:21;;;;;;;;;;;;;;;2.55;67.03;100735.19;4123105;28;20032;-65
2023/03/05 06:40:23;;;;;;;;;;;;;;;2.55;67.14;100735.19;4123613;28;20029;-65
2023/03/05 06:42:27;;;;;;;;;;;;;;;2.55;67.12;100732.50;4122734;28;20032;-66
2023/03/05 06:44:29;;;;;;;;;;;;;;;2.57;67.06;100735.94;4122642;28;20028;-63
2023/03/05 06:46:31;;;;;;;;;;;;;;;2.60;66.98;100735.69;4123426;28;20004;-65
2023/03/05 06:48:33;;;;;;;;;;;;;;;2.62;67.03;100725.72;4123499;28;20016;-66
2023/03/05 06:50:35;;;;;;;;;;;;;;;2.65;66.94;100738.81;4118169;28;20024;-66
2023/03/05 06:52:39;;;;;;;;;;;;;;;2.64;67.19;100733.59;4122474;28;20029;-65
2023/03/05 06:54:41;;;;;;;;;;;;;;;2.65;67.22;100737.94;4122785;28;20005;-65
2023/03/05 06:56:44;;;;;;;;;;;;;;;2.67;67.07;100738.69;4105096;28;20021;-64
2023/03/05 06:58:48;;;;;;;;;;;;;;;2.69;67.12;100747.38;4123754;28;20029;-65
2023/03/05 07:00:50;;;;;;;;;;;;;;;2.70;66.97;100743.75;4122138;28;20028;-66
2023/03/05 07:02:52;;;;;;;;;;;;;;;2.72;67.15;100740.97;4120164;28;20017;-64
2023/03/05 07:04:54;;;;;;;;;;;;;;;2.75;66.75;100748.72;4122063;28;20020;-66
2023/03/05 07:06:57;;;;;;;;;;;;;;;2.75;66.55;100746.88;4121325;28;20424;-66
2023/03/05 07:09:00;;;;;;;;;;;;;;;2.75;66.53;100736.22;4124955;28;20012;-66
2023/03/05 07:11:02;;;;;;;;;;;;;;;2.77;66.51;100747.59;4123312;28;20017;-66
2023/03/05 07:13:04;;;;;;;;;;;;;;;2.78;66.37;100746.63;4108528;28;20025;-66
2023/03/05 07:15:08;;;;;;;;;;;;;;;2.79;66.24;100751.00;4105433;28;20033;-66
2023/03/05 07:17:10;;;;;;;;;;;;;;;2.78;66.21;100753.81;4109385;28;20037;-66
2023/03/05 07:19:12;;;;;;;;;;;;;;;2.78;66.36;100749.31;4108636;28;20048;-66
2023/03/05 07:21:15;;;;;;;;;;;;;;;2.80;66.21;100752.69;4108070;28;20044;-67
2023/03/05 07:23:17;;;;;;;;;;;;;;;2.82;66.16;100749.88;4105741;28;20481;-66
2023/03/05 07:25:20;;;;;;;;;;;;;;;2.84;66.39;100747.97;4108953;28;20025;-66
2023/03/05 07:27:24;;;;;;;;;;;;;;;2.84;66.12;100750.63;4109639;28;20495;-65
2023/03/05 07:29:27;;;;;;;;;;;;;;;2.85;65.97;100752.31;4090897;28;20025;-66
2023/03/05 07:31:30;;;;;;;;;;;;;;;2.88;65.87;100747.59;4108622;28;20017;-67
2023/03/05 07:33:33;;;;;;;;;;;;;;;2.91;65.51;100750.97;4106735;28;20022;-66
2023/03/05 07:35:39;;;;;;;;;;;;;;;2.92;65.36;100750.00;4108876;28;20013;-65
2023/03/05 07:37:41;;;;;;;;;;;;;;;2.92;65.28;100744.66;4106371;28;20048;-66
2023/03/05 07:39:43;;;;;;;;;;;;;;;2.91;65.10;100743.78;4107960;28;20026;-66
2023/03/05 07:41:45;;;;;;;;;;;;;;;2.85;64.70;100742.50;4106111;28;20013;-65
2023/03/05 07:43:49;;;;;;;;;;;;;;;2.91;64.92;100745.63;4105042;28;20503;-66
2023/03/05 07:45:51;;;;;;;;;;;;;;;2.91;64.81;100746.47;4105777;28;20732;-66
2023/03/05 07:47:55;;;;;;;;;;;;;;;2.93;64.64;100751.66;4090004;28;19935;-65
2023/03/05 07:49:57;;;;;;;;;;;;;;;2.95;64.64;100747.91;4105904;28;20021;-65
2023/03/05 07:51:59;;;;;;;;;;;;;;;3.00;64.64;100739.53;4105296;28;20568;-64
2023/03/05 07:54:01;;;;;;;;;;;;;;;3.03;64.38;100740.09;4106365;28;20029;-64
2023/03/05 07:56:03;;;;;;;;;;;;;;;3.04;64.27;100738.28;4106051;28;20044;-64
2023/03/05 07:58:05;;;;;;;;;;;;;;;3.06;64.41;100733.69;4105473;28;20050;-65
2023/03/05 08:00:08;;;;;;;;;;;;;;;3.06;64.16;100736.34;4105689;28;20030;-64
2023/03/05 08:02:18;;;;;;;;;;;;;;;3.07;63.81;100735.34;4105405;28;20020;-64
2023/03/05 08:04:22;;;;;;;;;;;;;;;3.08;63.61;100733.56;4106368;28;20045;-65
2023/03/05 08:06:24;;;;;;;;;;;;;;;3.07;63.64;100730.03;4105790;28;20017;-65
2023/03/05 08:08:26;;;;;;;;;;;;;;;3.08;63.65;100731.72;4105873;28;20016;-64
2023/03/05 08:10:28;;;;;;;;;;;;;;;3.12;63.72;100737.63;4109054;28;20058;-65
2023/03/05 08:12:30;;;;;;;;;;;;;;;3.13;63.45;100736.69;4116754;28;20020;-65
2023/03/05 08:14:32;;;;;;;;;;;;;;;3.15;63.42;100737.38;4120930;28;20424;-64
2023/03/05 08:16:34;;;;;;;;;;;;;;;3.19;63.69;100744.16;4121468;28;20380;-66
2023/03/05 08:18:36;;;;;;;;;;;;;;;3.20;63.30;100749.38;4120279;28;20025;-65
2023/03/05 08:20:39;;;;;;;;;;;;;;;3.23;63.65;100733.09;4121681;28;20012;-64
2023/03/05 08:22:41;;;;;;;;;;;;;;;3.27;63.47;100740.84;4120736;28;20057;-65
2023/03/05 08:24:43;;;;;;;;;;;;;;;3.29;63.42;100734.41;4121103;28;20557;-64
2023/03/05 08:26:45;;;;;;;;;;;;;;;3.33;63.37;100735.00;4121052;28;20432;-65
2023/03/05 08:28:47;;;;;;;;;;;;;;;3.34;62.84;100726.88;4122082;28;20025;-65
2023/03/05 08:30:49;;;;;;;;;;;;;;;3.39;63.39;100731.81;4122040;28;20032;-64
2023/03/05 08:32:51;;;;;;;;;;;;;;;3.45;63.48;100736.63;4121134;28;20036;-65
2023/03/05 08:34:57;;;;;;;;;;;;;;;3.53;64.12;100718.13;4120615;28;20041;-64
2023/03/05 08:37:00;;;;;;;;;;;;;;;3.60;64.10;100723.78;4121141;28;20463;-64
2023/03/05 08:39:02;;;;;;;;;;;;;;;3.64;62.92;100729.69;4121103;28;20063;-63
2023/03/05 08:41:04;;;;;;;;;;;;;;;3.58;60.69;100712.38;4120907;28;20041;-64
2023/03/05 08:43:06;;;;;;;;;;;;;;;3.63;62.27;100712.81;4120970;28;20025;-64
2023/03/05 08:45:09;;;;;;;;;;;;;;;3.70;63.26;100714.00;4119481;28;20020;-64
2023/03/05 08:47:11;;;;;;;;;;;;;;;3.78;63.97;100710.66;4121518;28;20024;-62
2023/03/05 08:49:13;;;;;;;;;;;;;;;3.85;64.02;100708.28;4117195;28;20016;-63
2023/03/05 08:51:16;;;;;;;;;;;;;;;3.92;63.96;100712.97;4121722;28;20025;-64
2023/03/05 08:53:19;;;;;;;;;;;;;;;3.97;63.65;100707.22;4121445;28;20014;-64
2023/03/05 08:55:21;;;;;;;;;;;;;;;4.03;64.01;100703.13;4119767;28;20025;-64
2023/03/05 08:57:23;;;;;;;;;;;;;;;4.06;63.61;100706.41;4121052;28;19961;-64
2023/03/05 08:59:25;;;;;;;;;;;;;;;4.08;63.35;100700.94;4120357;28;20021;-64
2023/03/05 09:01:27;;;;;;;;;;;;;;;4.10;62.99;100696.28;4121259;28;20032;-64
2023/03/05 09:03:29;;;;;;;;;;;;;;;4.10;62.43;100681.09;4121427;28;20057;-64
2023/03/05 09:05:31;;;;;;;;;;;;;;;4.11;62.87;100687.28;4118298;28;20016;-64
2023/03/05 09:07:33;;;;;;;;;;;;;;;4.12;62.96;100683.63;4121680;28;20016;-64
2023/03/05 09:09:36;;;;;;;;;;;;;;;4.13;62.59;100679.97;4120933;28;20476;-63
2023/03/05 09:11:38;;;;;;;;;;;;;;;4.19;62.60;100679.44;4121627;28;20033;-64
2023/03/05 09:13:40;;;;;;;;;;;;;;;4.29;62.30;100687.47;4104104;28;20013;-64
2023/03/05 09:15:42;;;;;;;;;;;;;;;4.39;62.74;100691.03;4111587;28;20022;-65
2023/03/05 09:17:44;;;;;;;;;;;;;;;4.49;62.94;100685.69;4122249;28;20459;-64
2023/03/05 09:19:46;;;;;;;;;;;;;;;4.59;62.77;100675.84;4118655;28;20025;-64
2023/03/05 09:21:48;;;;;;;;;;;;;;;4.69;62.46;100682.03;4121922;28;20447;-64
2023/03/05 09:23:50;;;;;;;;;;;;;;;4.73;61.90;100679.91;4122427;28;20033;-65
2023/03/05 09:25:54;;;;;;;;;;;;;;;4.78;61.66;100675.00;4120432;28;20467;-64
2023/03/05 09:27:56;;;;;;;;;;;;;;;4.79;60.25;100679.34;4122282;28;20085;-65
2023/03/05 09:29:58;;;;;;;;;;;;;;;4.77;61.33;100675.97;4120297;28;20029;-65
2023/03/05 09:32:00;;;;;;;;;;;;;;;4.75;61.13;100682.44;4122135;28;20032;-64
2023/03/05 09:34:01;;;;;;;;;;;;;;;4.73;60.67;100679.06;4121930;28;20123;-64
2023/03/05 09:36:04;;;;;;;;;;;;;;;4.70;60.28;100680.19;4119930;28;19997;-64
2023/03/05 09:38:06;;;;;;;;;;;;;;;4.66;60.51;100671.59;4122504;28;20024;-65
2023/03/05 09:40:11;;;;;;;;;;;;;;;4.59;59.31;100681.19;4120987;28;20022;-64
2023/03/05 09:42:27;;;;;;;;;;;;;;;4.56;58.94;100676.13;4115110;28;20082;-64
2023/03/05 09:44:31;;;;;;;;;;;;;;;4.55;59.51;100681.63;4121458;28;20028;-64
2023/03/05 09:46:37;;;;;;;;;;;;;;;4.52;59.18;100674.69;4105027;28;20037;-64
2023/03/05 09:48:43;;;;;;;;;;;;;;;4.47;59.71;100672.44;4121957;28;20016;-64
2023/03/05 09:50:49;;;;;;;;;;;;;;;4.47;59.97;100684.97;4119739;28;19926;-64
2023/03/05 09:52:51;;;;;;;;;;;;;;;4.42;58.29;100674.69;4122639;28;20422;-64
2023/03/05 09:54:54;;;;;;;;;;;;;;;4.39;57.96;100666.09;4119057;28;20033;-65
2023/03/05 09:56:56;;;;;;;;;;;;;;;4.36;59.77;100666.34;4124673;28;20049;-65
2023/03/05 09:59:02;;;;;;;;;;;;;;;4.37;59.97;100668.91;4121481;28;20462;-64
2023/03/05 10:01:04;;;;;;;;;;;;;;;4.41;59.70;100661.47;4122363;28;20012;-64
2023/03/05 10:03:06;;;;;;;;;;;;;;;4.41;59.14;100651.59;4124181;28;20402;-65
2023/03/05 10:05:12;;;;;;;;;;;;;;;4.42;59.45;100653.31;4123885;28;20041;-65
2023/03/05 10:07:16;;;;;;;;;;;;;;;4.43;60.20;100656.81;4124421;28;20013;-65
2023/03/05 10:09:20;;;;;;;;;;;;;;;4.46;60.25;100645.84;4123676;28;20024;-66
2023/03/05 10:11:37;;;;;;;;;;;;;;;4.48;60.23;100642.06;4124129;28;20016;-65
2023/03/05 10:13:40;;;;;;;;;;;;;;;4.48;59.92;100649.22;4120567;28;20009;-65
2023/03/05 10:15:50;;;;;;;;;;;;;;;4.47;60.34;100650.22;4124170;28;20009;-65
2023/03/05 10:18:05;;;;;;;;;;;;;;;4.45;58.95;100653.03;4123415;28;20032;-65
2023/03/05 10:20:22;;;;;;;;;;;;;;;4.43;59.69;100651.47;4123432;28;20511;-65
2023/03/05 10:22:24;;;;;;;;;;;;;;;4.40;59.96;100654.41;4123593;28;20028;-65
2023/03/05 10:24:40;;;;;;;;;;;;;;;4.39;59.75;100648.22;4123955;28;20368;-64
2023/03/05 10:26:47;;;;;;;;;;;;;;;4.40;59.83;100641.03;4124406;28;20044;-64
2023/03/05 10:28:51;;;;;;;;;;;;;;;4.42;58.72;100639.06;4124213;28;20037;-65
2023/03/05 10:30:58;;;;;;;;;;;;;;;4.41;57.67;100630.22;4123914;28;20025;-65
2023/03/05 10:33:02;;;;;;;;;;;;;;;4.43;59.02;100630.06;4124303;28;20459;-65
2023/03/05 10:35:11;;;;;;;;;;;;;;;4.42;58.56;100626.56;4121671;28;20024;-65
2023/03/05 10:37:18;;;;;;;;;;;;;;;4.40;57.78;100628.50;4123695;28;20020;-65
2023/03/05 10:39:38;;;;;;;;;;;;;;;4.34;55.54;100621.03;4123214;28;20013;-65